ジャカルタ の空港の天気 - METARとTAF

スカルノハッタ国際空港 ( WIII / CGK ) - インドネシア バンテン州、Cengkareng ( ジャカルタ近郊)
飛行場実況気象(Metar)
観測時間02/18 06:00 WIB (02/17 23:00 UTC)
風向・風速北北西 3m/s
視程5000m
天気現象周辺で雷
少しの雲 雲底高度 550m
全天の4割程度の雲 雲底高度 580m
気温26℃
湿度84%
気圧1012hPa
METARWIII 172300Z 33006KT 5000 VCTS FEW018CB SCT019 26/23 Q1012 NOSIG RMK CB TO N
過去の天気等 Google飛行場航空写真 Wunderground天気予報

過去48時間のMETAR

飛行場予報(TAF)
発表時間: 2/18 00:00 WIB (2/17 17:00 UTC)
予報対象時間: 18日1時 WIB ~ 19日7時 WIB
風向・風速南西 3m/s
視程6000m
全天の4割程度の雲 雲底高度 610m
18日1時 WIB ~ 18日4時 WIB に一時的に
天気現象弱い雷雨
少しの積乱雲 雲底高度 550m
18日9時 WIB ~ 18日11時 WIB に徐々に
風向・風速西北西 5m/s
TAF WIII 171700Z 1718/1824 22005KT 6000 SCT020
TEMPO 1718/1721 -TSRA FEW018CB
BECMG 1802/1804 30010KT